sensor_id;sensor_type;location;lat;lon;timestamp;P1;durP1;ratioP1;P2;durP2;ratioP2
72647;SDS011;60693;50.002;8.644;2023-08-06T00:00:26;8.52;;;3.17;;
72647;SDS011;60693;50.002;8.644;2023-08-06T00:03:12;8.27;;;2.95;;
72647;SDS011;60693;50.002;8.644;2023-08-06T00:05:41;9.07;;;3.27;;
72647;SDS011;60693;50.002;8.644;2023-08-06T00:08:07;8.77;;;2.83;;
72647;SDS011;60693;50.002;8.644;2023-08-06T00:10:33;8.23;;;3.20;;
72647;SDS011;60693;50.002;8.644;2023-08-06T00:12:58;7.70;;;2.30;;
72647;SDS011;60693;50.002;8.644;2023-08-06T00:15:24;8.82;;;3.13;;
72647;SDS011;60693;50.002;8.644;2023-08-06T00:17:50;8.43;;;3.00;;
72647;SDS011;60693;50.002;8.644;2023-08-06T00:20:16;8.48;;;2.55;;
72647;SDS011;60693;50.002;8.644;2023-08-06T00:22:41;7.53;;;2.73;;
72647;SDS011;60693;50.002;8.644;2023-08-06T00:25:07;8.80;;;2.53;;
72647;SDS011;60693;50.002;8.644;2023-08-06T00:27:34;9.20;;;2.72;;
72647;SDS011;60693;50.002;8.644;2023-08-06T00:30:00;10.70;;;3.23;;
72647;SDS011;60693;50.002;8.644;2023-08-06T00:32:26;12.32;;;3.20;;
72647;SDS011;60693;50.002;8.644;2023-08-06T00:34:52;10.05;;;4.10;;
72647;SDS011;60693;50.002;8.644;2023-08-06T00:37:18;11.83;;;4.30;;
72647;SDS011;60693;50.002;8.644;2023-08-06T00:39:44;11.82;;;3.92;;
72647;SDS011;60693;50.002;8.644;2023-08-06T00:42:10;10.32;;;3.53;;
72647;SDS011;60693;50.002;8.644;2023-08-06T00:44:36;11.03;;;4.10;;
72647;SDS011;60693;50.002;8.644;2023-08-06T00:47:03;10.40;;;3.90;;
72647;SDS011;60693;50.002;8.644;2023-08-06T00:49:29;10.55;;;4.22;;
72647;SDS011;60693;50.002;8.644;2023-08-06T00:51:55;11.57;;;4.13;;
72647;SDS011;60693;50.002;8.644;2023-08-06T00:54:22;8.70;;;3.60;;
72647;SDS011;60693;50.002;8.644;2023-08-06T00:56:48;9.40;;;3.50;;
72647;SDS011;60693;50.002;8.644;2023-08-06T00:59:14;9.70;;;3.70;;
72647;SDS011;60693;50.002;8.644;2023-08-06T01:01:40;9.52;;;4.28;;
72647;SDS011;60693;50.002;8.644;2023-08-06T01:04:06;10.67;;;3.57;;
72647;SDS011;60693;50.002;8.644;2023-08-06T01:06:35;10.13;;;3.38;;
72647;SDS011;60693;50.002;8.644;2023-08-06T01:09:05;9.35;;;3.22;;
72647;SDS011;60693;50.002;8.644;2023-08-06T01:11:59;9.27;;;3.40;;
72647;SDS011;60693;50.002;8.644;2023-08-06T01:14:30;10.88;;;3.45;;
72647;SDS011;60693;50.002;8.644;2023-08-06T01:16:59;8.20;;;3.33;;
72647;SDS011;60693;50.002;8.644;2023-08-06T01:19:26;10.05;;;3.67;;
72647;SDS011;60693;50.002;8.644;2023-08-06T01:21:52;7.82;;;2.67;;
72647;SDS011;60693;50.002;8.644;2023-08-06T01:24:18;7.40;;;3.10;;
72647;SDS011;60693;50.002;8.644;2023-08-06T01:26:45;8.30;;;2.60;;
72647;SDS011;60693;50.002;8.644;2023-08-06T01:29:25;11.18;;;3.50;;
72647;SDS011;60693;50.002;8.644;2023-08-06T01:31:55;8.35;;;2.67;;
72647;SDS011;60693;50.002;8.644;2023-08-06T01:34:22;7.27;;;2.70;;
72647;SDS011;60693;50.002;8.644;2023-08-06T01:36:49;8.48;;;2.70;;
72647;SDS011;60693;50.002;8.644;2023-08-06T01:39:16;8.05;;;2.50;;
72647;SDS011;60693;50.002;8.644;2023-08-06T01:41:42;8.15;;;2.47;;
72647;SDS011;60693;50.002;8.644;2023-08-06T01:44:07;8.00;;;2.10;;
72647;SDS011;60693;50.002;8.644;2023-08-06T01:46:33;8.43;;;2.85;;
72647;SDS011;60693;50.002;8.644;2023-08-06T01:48:59;8.83;;;2.50;;
72647;SDS011;60693;50.002;8.644;2023-08-06T01:51:25;9.40;;;2.45;;
72647;SDS011;60693;50.002;8.644;2023-08-06T01:53:51;8.10;;;1.92;;
72647;SDS011;60693;50.002;8.644;2023-08-06T01:56:16;8.23;;;2.80;;
72647;SDS011;60693;50.002;8.644;2023-08-06T01:58:42;8.38;;;2.63;;
72647;SDS011;60693;50.002;8.644;2023-08-06T02:01:08;8.20;;;2.50;;
72647;SDS011;60693;50.002;8.644;2023-08-06T02:03:34;7.72;;;2.15;;
72647;SDS011;60693;50.002;8.644;2023-08-06T02:06:00;7.77;;;2.00;;
72647;SDS011;60693;50.002;8.644;2023-08-06T02:08:26;7.30;;;2.05;;
72647;SDS011;60693;50.002;8.644;2023-08-06T02:10:52;7.85;;;2.53;;
72647;SDS011;60693;50.002;8.644;2023-08-06T02:13:19;6.97;;;2.20;;
72647;SDS011;60693;50.002;8.644;2023-08-06T02:15:45;6.83;;;1.90;;
72647;SDS011;60693;50.002;8.644;2023-08-06T02:18:13;8.65;;;2.42;;
72647;SDS011;60693;50.002;8.644;2023-08-06T02:20:40;8.10;;;2.20;;
72647;SDS011;60693;50.002;8.644;2023-08-06T02:23:06;8.77;;;2.17;;
72647;SDS011;60693;50.002;8.644;2023-08-06T02:25:32;10.70;;;2.10;;
72647;SDS011;60693;50.002;8.644;2023-08-06T02:27:58;7.95;;;1.55;;
72647;SDS011;60693;50.002;8.644;2023-08-06T02:30:23;7.17;;;1.80;;
72647;SDS011;60693;50.002;8.644;2023-08-06T02:32:49;8.80;;;1.60;;
72647;SDS011;60693;50.002;8.644;2023-08-06T02:35:15;6.20;;;1.67;;
72647;SDS011;60693;50.002;8.644;2023-08-06T02:37:41;8.60;;;1.88;;
72647;SDS011;60693;50.002;8.644;2023-08-06T02:40:06;9.33;;;2.10;;
72647;SDS011;60693;50.002;8.644;2023-08-06T02:42:33;7.43;;;2.20;;
72647;SDS011;60693;50.002;8.644;2023-08-06T02:44:58;7.83;;;2.43;;
72647;SDS011;60693;50.002;8.644;2023-08-06T02:47:24;10.93;;;2.58;;
72647;SDS011;60693;50.002;8.644;2023-08-06T02:49:50;9.30;;;2.58;;
72647;SDS011;60693;50.002;8.644;2023-08-06T02:52:16;12.70;;;2.87;;
72647;SDS011;60693;50.002;8.644;2023-08-06T02:54:42;7.72;;;2.25;;
72647;SDS011;60693;50.002;8.644;2023-08-06T02:57:08;10.30;;;2.47;;
72647;SDS011;60693;50.002;8.644;2023-08-06T02:59:33;8.77;;;2.53;;
72647;SDS011;60693;50.002;8.644;2023-08-06T03:01:59;9.68;;;2.83;;
72647;SDS011;60693;50.002;8.644;2023-08-06T03:04:25;6.57;;;2.00;;
72647;SDS011;60693;50.002;8.644;2023-08-06T03:06:51;7.90;;;2.80;;
72647;SDS011;60693;50.002;8.644;2023-08-06T03:09:17;8.40;;;2.87;;
72647;SDS011;60693;50.002;8.644;2023-08-06T03:11:43;9.57;;;2.55;;
72647;SDS011;60693;50.002;8.644;2023-08-06T03:14:09;9.40;;;3.15;;
72647;SDS011;60693;50.002;8.644;2023-08-06T03:16:35;8.57;;;2.33;;
72647;SDS011;60693;50.002;8.644;2023-08-06T03:19:00;7.27;;;1.90;;
72647;SDS011;60693;50.002;8.644;2023-08-06T03:21:27;8.77;;;2.60;;
72647;SDS011;60693;50.002;8.644;2023-08-06T03:23:55;8.55;;;2.30;;
72647;SDS011;60693;50.002;8.644;2023-08-06T03:26:21;6.27;;;1.60;;
72647;SDS011;60693;50.002;8.644;2023-08-06T03:28:47;9.02;;;2.20;;
72647;SDS011;60693;50.002;8.644;2023-08-06T03:31:13;7.13;;;1.90;;
72647;SDS011;60693;50.002;8.644;2023-08-06T03:33:38;8.45;;;2.25;;
72647;SDS011;60693;50.002;8.644;2023-08-06T03:36:04;7.22;;;1.90;;
72647;SDS011;60693;50.002;8.644;2023-08-06T03:38:30;8.03;;;2.13;;
72647;SDS011;60693;50.002;8.644;2023-08-06T03:40:56;8.13;;;1.45;;
72647;SDS011;60693;50.002;8.644;2023-08-06T03:43:21;8.83;;;2.10;;
72647;SDS011;60693;50.002;8.644;2023-08-06T03:45:47;8.40;;;2.22;;
72647;SDS011;60693;50.002;8.644;2023-08-06T03:48:13;6.20;;;1.80;;
72647;SDS011;60693;50.002;8.644;2023-08-06T03:50:39;7.85;;;1.65;;
72647;SDS011;60693;50.002;8.644;2023-08-06T03:53:04;7.43;;;1.40;;
72647;SDS011;60693;50.002;8.644;2023-08-06T03:55:30;9.63;;;2.22;;
72647;SDS011;60693;50.002;8.644;2023-08-06T03:57:56;8.10;;;1.80;;
72647;SDS011;60693;50.002;8.644;2023-08-06T04:00:22;8.05;;;1.80;;
72647;SDS011;60693;50.002;8.644;2023-08-06T04:02:47;7.63;;;1.70;;
72647;SDS011;60693;50.002;8.644;2023-08-06T04:05:14;7.38;;;1.73;;
72647;SDS011;60693;50.002;8.644;2023-08-06T04:07:40;8.60;;;1.75;;
72647;SDS011;60693;50.002;8.644;2023-08-06T04:10:06;7.27;;;1.83;;
72647;SDS011;60693;50.002;8.644;2023-08-06T04:12:32;9.35;;;2.20;;
72647;SDS011;60693;50.002;8.644;2023-08-06T04:15:02;8.80;;;2.03;;
72647;SDS011;60693;50.002;8.644;2023-08-06T04:17:28;9.27;;;1.37;;
72647;SDS011;60693;50.002;8.644;2023-08-06T04:19:55;11.73;;;2.00;;
72647;SDS011;60693;50.002;8.644;2023-08-06T04:22:23;12.77;;;2.00;;
72647;SDS011;60693;50.002;8.644;2023-08-06T04:24:50;7.32;;;1.42;;
72647;SDS011;60693;50.002;8.644;2023-08-06T04:27:16;7.93;;;1.70;;
72647;SDS011;60693;50.002;8.644;2023-08-06T04:29:45;9.93;;;1.70;;
72647;SDS011;60693;50.002;8.644;2023-08-06T04:32:11;7.17;;;1.57;;
72647;SDS011;60693;50.002;8.644;2023-08-06T04:34:37;6.55;;;1.70;;
72647;SDS011;60693;50.002;8.644;2023-08-06T04:37:03;7.22;;;1.77;;
72647;SDS011;60693;50.002;8.644;2023-08-06T04:39:30;6.83;;;2.00;;
72647;SDS011;60693;50.002;8.644;2023-08-06T04:41:56;8.45;;;1.80;;
72647;SDS011;60693;50.002;8.644;2023-08-06T04:44:23;10.60;;;2.30;;
72647;SDS011;60693;50.002;8.644;2023-08-06T04:46:48;7.37;;;2.10;;
72647;SDS011;60693;50.002;8.644;2023-08-06T04:49:14;9.05;;;2.42;;
72647;SDS011;60693;50.002;8.644;2023-08-06T04:51:40;8.53;;;2.67;;
72647;SDS011;60693;50.002;8.644;2023-08-06T04:54:07;9.00;;;2.30;;
72647;SDS011;60693;50.002;8.644;2023-08-06T04:56:33;9.03;;;2.63;;
72647;SDS011;60693;50.002;8.644;2023-08-06T04:58:59;18.93;;;3.33;;
72647;SDS011;60693;50.002;8.644;2023-08-06T05:01:25;9.43;;;2.87;;
72647;SDS011;60693;50.002;8.644;2023-08-06T05:03:53;7.83;;;2.20;;
72647;SDS011;60693;50.002;8.644;2023-08-06T05:06:19;9.65;;;2.80;;
72647;SDS011;60693;50.002;8.644;2023-08-06T05:08:45;9.07;;;2.43;;
72647;SDS011;60693;50.002;8.644;2023-08-06T05:11:10;8.40;;;2.22;;
72647;SDS011;60693;50.002;8.644;2023-08-06T05:13:36;53.27;;;5.83;;
72647;SDS011;60693;50.002;8.644;2023-08-06T05:16:02;27.88;;;3.38;;
72647;SDS011;60693;50.002;8.644;2023-08-06T05:18:27;9.15;;;2.70;;
72647;SDS011;60693;50.002;8.644;2023-08-06T05:20:54;8.37;;;2.40;;
72647;SDS011;60693;50.002;8.644;2023-08-06T05:23:20;8.43;;;2.38;;
72647;SDS011;60693;50.002;8.644;2023-08-06T05:25:46;8.27;;;2.50;;
72647;SDS011;60693;50.002;8.644;2023-08-06T05:28:12;7.90;;;2.00;;
72647;SDS011;60693;50.002;8.644;2023-08-06T05:30:40;8.38;;;2.45;;
72647;SDS011;60693;50.002;8.644;2023-08-06T05:33:07;7.95;;;2.67;;
72647;SDS011;60693;50.002;8.644;2023-08-06T05:35:33;8.60;;;2.47;;
72647;SDS011;60693;50.002;8.644;2023-08-06T05:37:59;10.35;;;2.70;;
72647;SDS011;60693;50.002;8.644;2023-08-06T05:40:24;8.13;;;2.57;;
72647;SDS011;60693;50.002;8.644;2023-08-06T05:42:52;12.10;;;2.70;;
72647;SDS011;60693;50.002;8.644;2023-08-06T05:45:19;8.05;;;2.05;;
72647;SDS011;60693;50.002;8.644;2023-08-06T05:47:44;7.28;;;1.70;;
72647;SDS011;60693;50.002;8.644;2023-08-06T05:50:10;8.53;;;1.80;;
72647;SDS011;60693;50.002;8.644;2023-08-06T05:52:36;10.32;;;1.80;;
72647;SDS011;60693;50.002;8.644;2023-08-06T05:55:02;8.60;;;1.83;;
72647;SDS011;60693;50.002;8.644;2023-08-06T05:57:28;8.20;;;1.23;;
72647;SDS011;60693;50.002;8.644;2023-08-06T05:59:54;8.07;;;1.60;;
72647;SDS011;60693;50.002;8.644;2023-08-06T06:02:20;9.27;;;1.65;;
72647;SDS011;60693;50.002;8.644;2023-08-06T06:04:45;5.82;;;1.40;;
72647;SDS011;60693;50.002;8.644;2023-08-06T06:07:11;6.20;;;1.20;;
72647;SDS011;60693;50.002;8.644;2023-08-06T06:09:37;6.50;;;0.90;;
72647;SDS011;60693;50.002;8.644;2023-08-06T06:12:05;8.52;;;1.30;;
72647;SDS011;60693;50.002;8.644;2023-08-06T06:14:31;6.43;;;0.90;;
72647;SDS011;60693;50.002;8.644;2023-08-06T06:16:57;7.80;;;1.80;;
72647;SDS011;60693;50.002;8.644;2023-08-06T06:19:23;6.10;;;1.20;;
72647;SDS011;60693;50.002;8.644;2023-08-06T06:21:48;6.30;;;1.00;;
72647;SDS011;60693;50.002;8.644;2023-08-06T06:24:14;7.28;;;1.70;;
72647;SDS011;60693;50.002;8.644;2023-08-06T06:26:40;5.40;;;0.93;;
72647;SDS011;60693;50.002;8.644;2023-08-06T06:29:06;5.22;;;1.00;;
72647;SDS011;60693;50.002;8.644;2023-08-06T06:31:31;6.30;;;1.10;;
72647;SDS011;60693;50.002;8.644;2023-08-06T06:33:57;7.45;;;1.30;;
72647;SDS011;60693;50.002;8.644;2023-08-06T06:36:24;6.60;;;1.70;;
72647;SDS011;60693;50.002;8.644;2023-08-06T06:38:49;5.03;;;0.90;;
72647;SDS011;60693;50.002;8.644;2023-08-06T06:41:15;6.82;;;1.10;;
72647;SDS011;60693;50.002;8.644;2023-08-06T06:43:41;5.50;;;0.90;;
72647;SDS011;60693;50.002;8.644;2023-08-06T06:46:07;7.50;;;1.30;;
72647;SDS011;60693;50.002;8.644;2023-08-06T06:48:33;7.53;;;0.97;;
72647;SDS011;60693;50.002;8.644;2023-08-06T06:50:59;6.65;;;1.20;;
72647;SDS011;60693;50.002;8.644;2023-08-06T06:53:25;8.95;;;2.53;;
72647;SDS011;60693;50.002;8.644;2023-08-06T06:55:54;7.88;;;1.80;;
72647;SDS011;60693;50.002;8.644;2023-08-06T06:58:29;7.90;;;1.37;;
72647;SDS011;60693;50.002;8.644;2023-08-06T07:00:56;8.20;;;1.20;;
72647;SDS011;60693;50.002;8.644;2023-08-06T07:03:21;5.40;;;1.20;;
72647;SDS011;60693;50.002;8.644;2023-08-06T07:05:48;6.57;;;1.13;;
72647;SDS011;60693;50.002;8.644;2023-08-06T07:08:15;4.68;;;0.77;;
72647;SDS011;60693;50.002;8.644;2023-08-06T07:10:41;5.97;;;0.80;;
72647;SDS011;60693;50.002;8.644;2023-08-06T07:13:07;7.68;;;0.80;;
72647;SDS011;60693;50.002;8.644;2023-08-06T07:15:33;6.07;;;0.90;;
72647;SDS011;60693;50.002;8.644;2023-08-06T07:17:59;4.78;;;0.60;;
72647;SDS011;60693;50.002;8.644;2023-08-06T07:20:24;11.73;;;0.90;;
72647;SDS011;60693;50.002;8.644;2023-08-06T07:22:50;4.80;;;0.70;;
72647;SDS011;60693;50.002;8.644;2023-08-06T07:25:16;4.85;;;0.50;;
72647;SDS011;60693;50.002;8.644;2023-08-06T07:27:42;3.88;;;0.60;;
72647;SDS011;60693;50.002;8.644;2023-08-06T07:30:08;3.92;;;0.70;;
72647;SDS011;60693;50.002;8.644;2023-08-06T07:32:34;2.67;;;0.40;;
72647;SDS011;60693;50.002;8.644;2023-08-06T07:35:00;4.32;;;0.50;;
72647;SDS011;60693;50.002;8.644;2023-08-06T07:37:28;3.60;;;0.57;;
72647;SDS011;60693;50.002;8.644;2023-08-06T07:39:54;5.35;;;1.83;;
72647;SDS011;60693;50.002;8.644;2023-08-06T07:42:20;5.70;;;0.98;;
72647;SDS011;60693;50.002;8.644;2023-08-06T07:44:50;4.90;;;0.75;;
72647;SDS011;60693;50.002;8.644;2023-08-06T07:47:22;4.70;;;0.60;;
72647;SDS011;60693;50.002;8.644;2023-08-06T07:49:48;5.07;;;0.97;;
72647;SDS011;60693;50.002;8.644;2023-08-06T07:52:14;5.85;;;0.60;;
72647;SDS011;60693;50.002;8.644;2023-08-06T07:54:40;3.08;;;0.47;;
72647;SDS011;60693;50.002;8.644;2023-08-06T07:57:05;3.88;;;0.50;;
72647;SDS011;60693;50.002;8.644;2023-08-06T07:59:31;4.97;;;0.70;;
72647;SDS011;60693;50.002;8.644;2023-08-06T08:01:57;3.13;;;0.67;;
72647;SDS011;60693;50.002;8.644;2023-08-06T08:04:23;4.38;;;0.80;;
72647;SDS011;60693;50.002;8.644;2023-08-06T08:06:49;3.08;;;0.50;;
72647;SDS011;60693;50.002;8.644;2023-08-06T08:09:15;4.37;;;0.70;;
72647;SDS011;60693;50.002;8.644;2023-08-06T08:11:41;8.23;;;1.10;;
72647;SDS011;60693;50.002;8.644;2023-08-06T08:14:07;4.72;;;1.08;;
72647;SDS011;60693;50.002;8.644;2023-08-06T08:16:32;6.70;;;1.07;;
72647;SDS011;60693;50.002;8.644;2023-08-06T08:18:58;6.85;;;1.30;;
72647;SDS011;60693;50.002;8.644;2023-08-06T08:21:24;7.10;;;1.57;;
72647;SDS011;60693;50.002;8.644;2023-08-06T08:23:50;7.88;;;1.30;;
72647;SDS011;60693;50.002;8.644;2023-08-06T08:26:16;6.40;;;1.42;;
72647;SDS011;60693;50.002;8.644;2023-08-06T08:28:42;4.97;;;1.05;;
72647;SDS011;60693;50.002;8.644;2023-08-06T08:31:08;8.67;;;1.10;;
72647;SDS011;60693;50.002;8.644;2023-08-06T08:33:35;5.72;;;1.48;;
72647;SDS011;60693;50.002;8.644;2023-08-06T08:36:00;10.43;;;3.97;;
72647;SDS011;60693;50.002;8.644;2023-08-06T08:38:26;6.10;;;1.30;;
72647;SDS011;60693;50.002;8.644;2023-08-06T08:40:53;7.65;;;0.95;;
72647;SDS011;60693;50.002;8.644;2023-08-06T08:43:22;6.17;;;1.00;;
72647;SDS011;60693;50.002;8.644;2023-08-06T08:45:52;5.03;;;0.80;;
72647;SDS011;60693;50.002;8.644;2023-08-06T08:48:21;6.18;;;0.98;;
72647;SDS011;60693;50.002;8.644;2023-08-06T08:50:49;6.50;;;0.90;;
72647;SDS011;60693;50.002;8.644;2023-08-06T08:53:16;7.57;;;0.93;;
72647;SDS011;60693;50.002;8.644;2023-08-06T08:55:43;4.70;;;0.80;;
72647;SDS011;60693;50.002;8.644;2023-08-06T08:58:12;24.98;;;13.75;;
72647;SDS011;60693;50.002;8.644;2023-08-06T09:00:38;19.52;;;10.93;;
72647;SDS011;60693;50.002;8.644;2023-08-06T09:03:05;5.85;;;1.40;;
72647;SDS011;60693;50.002;8.644;2023-08-06T09:05:32;6.20;;;1.10;;
72647;SDS011;60693;50.002;8.644;2023-08-06T09:08:02;6.90;;;1.90;;
72647;SDS011;60693;50.002;8.644;2023-08-06T09:10:28;5.57;;;1.17;;
72647;SDS011;60693;50.002;8.644;2023-08-06T09:12:56;6.78;;;1.02;;
72647;SDS011;60693;50.002;8.644;2023-08-06T09:15:24;5.00;;;0.77;;
72647;SDS011;60693;50.002;8.644;2023-08-06T09:17:50;3.78;;;0.55;;
72647;SDS011;60693;50.002;8.644;2023-08-06T09:20:15;2.47;;;0.40;;
72647;SDS011;60693;50.002;8.644;2023-08-06T09:22:42;2.78;;;0.40;;
72647;SDS011;60693;50.002;8.644;2023-08-06T09:25:09;2.10;;;0.40;;
72647;SDS011;60693;50.002;8.644;2023-08-06T09:27:38;4.07;;;0.60;;
72647;SDS011;60693;50.002;8.644;2023-08-06T09:30:05;2.57;;;0.43;;
72647;SDS011;60693;50.002;8.644;2023-08-06T09:32:48;3.55;;;0.52;;
72647;SDS011;60693;50.002;8.644;2023-08-06T09:35:19;1.92;;;0.30;;
72647;SDS011;60693;50.002;8.644;2023-08-06T09:37:45;1.95;;;0.40;;
72647;SDS011;60693;50.002;8.644;2023-08-06T09:42:56;3.72;;;0.55;;
72647;SDS011;60693;50.002;8.644;2023-08-06T09:45:23;8.02;;;3.03;;
72647;SDS011;60693;50.002;8.644;2023-08-06T09:47:50;3.53;;;0.70;;
72647;SDS011;60693;50.002;8.644;2023-08-06T09:50:21;2.27;;;0.40;;
72647;SDS011;60693;50.002;8.644;2023-08-06T09:52:47;1.95;;;0.30;;
72647;SDS011;60693;50.002;8.644;2023-08-06T09:55:14;2.47;;;0.50;;
72647;SDS011;60693;50.002;8.644;2023-08-06T09:57:41;1.65;;;0.30;;
72647;SDS011;60693;50.002;8.644;2023-08-06T10:00:07;2.80;;;0.40;;
72647;SDS011;60693;50.002;8.644;2023-08-06T10:02:37;1.50;;;0.30;;
72647;SDS011;60693;50.002;8.644;2023-08-06T10:05:04;2.38;;;0.88;;
72647;SDS011;60693;50.002;8.644;2023-08-06T10:07:34;1.88;;;0.40;;
72647;SDS011;60693;50.002;8.644;2023-08-06T10:10:00;4.10;;;0.98;;
72647;SDS011;60693;50.002;8.644;2023-08-06T10:12:28;4.38;;;0.50;;
72647;SDS011;60693;50.002;8.644;2023-08-06T10:14:55;2.97;;;0.30;;
72647;SDS011;60693;50.002;8.644;2023-08-06T10:17:23;4.45;;;1.27;;
72647;SDS011;60693;50.002;8.644;2023-08-06T10:19:49;4.13;;;1.08;;
72647;SDS011;60693;50.002;8.644;2023-08-06T10:22:16;2.90;;;0.52;;
72647;SDS011;60693;50.002;8.644;2023-08-06T10:24:56;2.45;;;0.55;;
72647;SDS011;60693;50.002;8.644;2023-08-06T10:27:29;1.77;;;0.37;;
72647;SDS011;60693;50.002;8.644;2023-08-06T10:30:09;2.10;;;0.50;;
72647;SDS011;60693;50.002;8.644;2023-08-06T10:32:49;2.65;;;0.60;;
72647;SDS011;60693;50.002;8.644;2023-08-06T10:38:03;2.10;;;0.45;;
72647;SDS011;60693;50.002;8.644;2023-08-06T10:40:36;3.17;;;0.30;;
72647;SDS011;60693;50.002;8.644;2023-08-06T10:43:03;3.13;;;0.50;;
72647;SDS011;60693;50.002;8.644;2023-08-06T10:45:34;3.05;;;0.50;;
72647;SDS011;60693;50.002;8.644;2023-08-06T10:48:01;2.28;;;0.47;;
72647;SDS011;60693;50.002;8.644;2023-08-06T10:50:26;2.93;;;0.40;;
72647;SDS011;60693;50.002;8.644;2023-08-06T10:52:52;2.33;;;0.32;;
72647;SDS011;60693;50.002;8.644;2023-08-06T10:55:22;2.95;;;0.60;;
72647;SDS011;60693;50.002;8.644;2023-08-06T10:57:49;3.25;;;0.40;;
72647;SDS011;60693;50.002;8.644;2023-08-06T11:00:15;3.83;;;0.50;;
72647;SDS011;60693;50.002;8.644;2023-08-06T11:02:41;2.72;;;0.40;;
72647;SDS011;60693;50.002;8.644;2023-08-06T11:05:07;2.70;;;0.57;;
72647;SDS011;60693;50.002;8.644;2023-08-06T11:07:35;2.25;;;0.45;;
72647;SDS011;60693;50.002;8.644;2023-08-06T11:10:04;2.93;;;0.50;;
72647;SDS011;60693;50.002;8.644;2023-08-06T11:12:31;3.25;;;0.40;;
72647;SDS011;60693;50.002;8.644;2023-08-06T11:14:57;1.85;;;0.40;;
72647;SDS011;60693;50.002;8.644;2023-08-06T11:17:24;4.38;;;0.70;;
72647;SDS011;60693;50.002;8.644;2023-08-06T11:19:50;1.90;;;0.40;;
72647;SDS011;60693;50.002;8.644;2023-08-06T11:22:16;3.13;;;0.57;;
72647;SDS011;60693;50.002;8.644;2023-08-06T11:24:43;2.88;;;0.80;;
72647;SDS011;60693;50.002;8.644;2023-08-06T11:27:12;3.38;;;0.43;;
72647;SDS011;60693;50.002;8.644;2023-08-06T11:29:40;2.47;;;0.40;;
72647;SDS011;60693;50.002;8.644;2023-08-06T11:32:07;5.77;;;1.60;;
72647;SDS011;60693;50.002;8.644;2023-08-06T11:34:33;2.58;;;0.40;;
72647;SDS011;60693;50.002;8.644;2023-08-06T11:37:00;2.50;;;0.50;;
72647;SDS011;60693;50.002;8.644;2023-08-06T11:39:25;4.50;;;0.60;;
72647;SDS011;60693;50.002;8.644;2023-08-06T11:41:51;6.43;;;2.50;;
72647;SDS011;60693;50.002;8.644;2023-08-06T11:44:21;4.68;;;1.25;;
72647;SDS011;60693;50.002;8.644;2023-08-06T11:49:17;2.77;;;0.30;;
72647;SDS011;60693;50.002;8.644;2023-08-06T11:51:49;2.10;;;0.30;;
72647;SDS011;60693;50.002;8.644;2023-08-06T11:54:15;2.63;;;0.40;;
72647;SDS011;60693;50.002;8.644;2023-08-06T11:56:41;2.25;;;0.40;;
72647;SDS011;60693;50.002;8.644;2023-08-06T11:59:07;1.93;;;0.30;;
72647;SDS011;60693;50.002;8.644;2023-08-06T12:01:33;2.90;;;0.30;;
72647;SDS011;60693;50.002;8.644;2023-08-06T12:03:59;3.47;;;0.30;;
72647;SDS011;60693;50.002;8.644;2023-08-06T12:06:28;2.10;;;0.30;;
72647;SDS011;60693;50.002;8.644;2023-08-06T12:08:54;1.75;;;0.22;;
72647;SDS011;60693;50.002;8.644;2023-08-06T12:11:20;2.72;;;0.40;;
72647;SDS011;60693;50.002;8.644;2023-08-06T12:13:50;1.70;;;0.30;;
72647;SDS011;60693;50.002;8.644;2023-08-06T12:16:16;2.47;;;0.40;;
72647;SDS011;60693;50.002;8.644;2023-08-06T12:18:44;2.33;;;0.30;;
72647;SDS011;60693;50.002;8.644;2023-08-06T12:21:10;1.55;;;0.30;;
72647;SDS011;60693;50.002;8.644;2023-08-06T12:23:36;3.83;;;1.15;;
72647;SDS011;60693;50.002;8.644;2023-08-06T12:26:02;9.90;;;4.60;;
72647;SDS011;60693;50.002;8.644;2023-08-06T12:28:28;2.65;;;0.45;;
72647;SDS011;60693;50.002;8.644;2023-08-06T12:30:53;4.00;;;0.40;;
72647;SDS011;60693;50.002;8.644;2023-08-06T12:33:20;2.30;;;0.30;;
72647;SDS011;60693;50.002;8.644;2023-08-06T12:35:46;3.17;;;0.52;;
72647;SDS011;60693;50.002;8.644;2023-08-06T12:38:12;4.93;;;0.60;;
72647;SDS011;60693;50.002;8.644;2023-08-06T12:40:41;3.67;;;0.40;;
72647;SDS011;60693;50.002;8.644;2023-08-06T12:43:06;2.63;;;0.52;;
72647;SDS011;60693;50.002;8.644;2023-08-06T12:45:33;2.50;;;0.43;;
72647;SDS011;60693;50.002;8.644;2023-08-06T12:47:58;2.70;;;0.40;;
72647;SDS011;60693;50.002;8.644;2023-08-06T12:50:24;2.72;;;0.60;;
72647;SDS011;60693;50.002;8.644;2023-08-06T12:52:50;3.50;;;0.50;;
72647;SDS011;60693;50.002;8.644;2023-08-06T12:55:16;3.70;;;0.38;;
72647;SDS011;60693;50.002;8.644;2023-08-06T12:57:41;2.57;;;0.37;;
72647;SDS011;60693;50.002;8.644;2023-08-06T13:00:08;2.97;;;0.40;;
72647;SDS011;60693;50.002;8.644;2023-08-06T13:02:34;3.35;;;0.55;;
72647;SDS011;60693;50.002;8.644;2023-08-06T13:05:00;4.72;;;0.63;;
72647;SDS011;60693;50.002;8.644;2023-08-06T13:07:28;4.55;;;0.60;;
72647;SDS011;60693;50.002;8.644;2023-08-06T13:09:54;2.63;;;0.60;;
72647;SDS011;60693;50.002;8.644;2023-08-06T13:12:20;3.70;;;0.43;;
72647;SDS011;60693;50.002;8.644;2023-08-06T13:14:48;11.43;;;6.47;;
72647;SDS011;60693;50.002;8.644;2023-08-06T13:17:14;6.70;;;2.15;;
72647;SDS011;60693;50.002;8.644;2023-08-06T13:19:40;3.80;;;0.50;;
72647;SDS011;60693;50.002;8.644;2023-08-06T13:22:06;3.00;;;0.40;;
72647;SDS011;60693;50.002;8.644;2023-08-06T13:24:34;2.60;;;0.50;;
72647;SDS011;60693;50.002;8.644;2023-08-06T13:27:00;2.83;;;0.70;;
72647;SDS011;60693;50.002;8.644;2023-08-06T13:29:26;5.22;;;0.50;;
72647;SDS011;60693;50.002;8.644;2023-08-06T13:31:53;4.35;;;0.63;;
72647;SDS011;60693;50.002;8.644;2023-08-06T13:34:19;5.55;;;0.65;;
72647;SDS011;60693;50.002;8.644;2023-08-06T13:36:44;3.67;;;0.60;;
72647;SDS011;60693;50.002;8.644;2023-08-06T13:39:10;3.27;;;0.60;;
72647;SDS011;60693;50.002;8.644;2023-08-06T13:41:37;4.30;;;0.60;;
72647;SDS011;60693;50.002;8.644;2023-08-06T13:44:04;4.32;;;0.85;;
72647;SDS011;60693;50.002;8.644;2023-08-06T13:46:30;2.93;;;0.50;;
72647;SDS011;60693;50.002;8.644;2023-08-06T13:48:56;3.70;;;0.70;;
72647;SDS011;60693;50.002;8.644;2023-08-06T13:51:22;5.55;;;0.82;;
72647;SDS011;60693;50.002;8.644;2023-08-06T13:53:48;3.97;;;0.67;;
72647;SDS011;60693;50.002;8.644;2023-08-06T13:56:13;3.08;;;0.60;;
72647;SDS011;60693;50.002;8.644;2023-08-06T13:58:43;3.47;;;0.60;;
72647;SDS011;60693;50.002;8.644;2023-08-06T14:01:12;6.10;;;1.38;;
72647;SDS011;60693;50.002;8.644;2023-08-06T14:03:38;3.58;;;0.60;;
72647;SDS011;60693;50.002;8.644;2023-08-06T14:06:04;4.63;;;0.80;;
72647;SDS011;60693;50.002;8.644;2023-08-06T14:08:30;4.53;;;0.75;;
72647;SDS011;60693;50.002;8.644;2023-08-06T14:10:55;4.70;;;0.80;;
72647;SDS011;60693;50.002;8.644;2023-08-06T14:13:22;4.80;;;0.77;;
72647;SDS011;60693;50.002;8.644;2023-08-06T14:15:47;3.60;;;0.60;;
72647;SDS011;60693;50.002;8.644;2023-08-06T14:18:14;6.43;;;0.60;;
72647;SDS011;60693;50.002;8.644;2023-08-06T14:20:40;4.03;;;0.50;;
72647;SDS011;60693;50.002;8.644;2023-08-06T14:23:06;3.25;;;0.52;;
72647;SDS011;60693;50.002;8.644;2023-08-06T14:25:32;4.35;;;0.47;;
72647;SDS011;60693;50.002;8.644;2023-08-06T14:27:58;5.93;;;0.40;;
72647;SDS011;60693;50.002;8.644;2023-08-06T14:30:24;3.70;;;0.38;;
72647;SDS011;60693;50.002;8.644;2023-08-06T14:32:49;2.87;;;0.40;;
72647;SDS011;60693;50.002;8.644;2023-08-06T14:35:15;4.25;;;0.57;;
72647;SDS011;60693;50.002;8.644;2023-08-06T14:37:41;4.30;;;0.50;;
72647;SDS011;60693;50.002;8.644;2023-08-06T14:40:07;3.30;;;0.57;;
72647;SDS011;60693;50.002;8.644;2023-08-06T14:42:33;1.90;;;0.40;;
72647;SDS011;60693;50.002;8.644;2023-08-06T14:45:00;2.55;;;0.30;;
72647;SDS011;60693;50.002;8.644;2023-08-06T14:47:25;2.03;;;0.40;;
72647;SDS011;60693;50.002;8.644;2023-08-06T14:49:51;4.07;;;0.50;;